Time;durP1;ratioP1;P1;durP2;ratioP2;P2;SDS_P1;SDS_P2;PMS_P1;PMS_P2;Temp;Humidity;BMP_temperature;BMP_pressure;BME280_temperature;BME280_humidity;BME280_pressure;Samples;Min_cycle;Max_cycle;Signal;HPM_P1;HPM_P2
2022/12/30 05:01:27;;;;;;;0.77;0.77;;;7.40;99.90;;;;;;5426398;23;20255;-68
2022/12/30 05:03:54;;;;;;;7.30;2.75;;;7.40;99.90;;;;;;4894745;29;20210;-67
2022/12/30 05:06:21;;;;;;;1.10;1.10;;;7.30;99.90;;;;;;4896938;29;20575;-67
2022/12/30 05:08:47;;;;;;;6.07;1.45;;;7.30;99.90;;;;;;4899996;29;20233;-66
2022/12/30 05:11:14;;;;;;;1.50;1.25;;;7.30;99.90;;;;;;4894872;29;20542;-66
2022/12/30 05:13:41;;;;;;;1.00;1.00;;;7.30;99.90;;;;;;4893386;29;20213;-66
2022/12/30 05:16:07;;;;;;;1.48;1.23;;;7.20;99.90;;;;;;4897009;29;20209;-66
2022/12/30 05:18:35;;;;;;;2.80;1.70;;;7.20;99.90;;;;;;4895710;29;20215;-66
2022/12/30 05:21:02;;;;;;;2.80;1.33;;;7.10;99.90;;;;;;4907466;23;20422;-66
2022/12/30 05:26:16;;;;;;;3.70;0.55;;;7.20;99.90;;;;;;4886548;29;20212;-65
2022/12/30 05:28:43;;;;;;;0.77;0.77;;;7.20;99.90;;;;;;4889218;29;20296;-66
2022/12/30 05:31:10;;;;;;;0.90;0.90;;;7.20;99.90;;;;;;4889383;29;20230;-66
2022/12/30 05:33:38;;;;;;;2.00;1.70;;;7.20;99.90;;;;;;4885291;29;20697;-67
2022/12/30 05:36:06;;;;;;;8.38;2.85;;;7.20;99.90;;;;;;4887870;29;20217;-67
2022/12/30 05:38:33;;;;;;;1.73;1.67;;;7.20;99.90;;;;;;4895181;29;20231;-66
2022/12/30 05:41:00;;;;;;;2.92;2.00;;;7.20;99.90;;;;;;4889543;29;20236;-68
2022/12/30 05:43:27;;;;;;;1.42;1.33;;;7.20;99.90;;;;;;4891943;29;20280;-65
2022/12/30 05:45:53;;;;;;;20.60;1.65;;;7.20;99.90;;;;;;4889363;29;20251;-67
2022/12/30 05:48:20;;;;;;;6.85;1.40;;;7.20;99.90;;;;;;4894582;29;20317;-66
2022/12/30 05:50:50;;;;;;;1.40;1.30;;;7.20;99.90;;;;;;4892862;29;20209;-65
2022/12/30 05:53:17;;;;;;;8.20;1.23;;;7.10;99.90;;;;;;4893825;29;20205;-65
2022/12/30 05:55:44;;;;;;;1.23;1.13;;;7.00;99.90;;;;;;4892146;29;20316;-65
2022/12/30 05:58:11;;;;;;;2.85;1.20;;;7.00;99.90;;;;;;4879461;29;20221;-67
2022/12/30 06:00:38;;;;;;;1.27;0.82;;;6.90;99.90;;;;;;4891091;29;20689;-66
2022/12/30 06:03:05;;;;;;;1.63;1.52;;;6.90;99.90;;;;;;4894926;29;20271;-67
2022/12/30 06:05:32;;;;;;;5.55;1.58;;;6.80;99.90;;;;;;4890762;29;20213;-66
2022/12/30 06:08:00;;;;;;;2.58;1.10;;;6.80;99.90;;;;;;4891084;29;20234;-68
2022/12/30 06:10:26;;;;;;;1.85;1.75;;;6.80;99.90;;;;;;4891635;29;20212;-67
2022/12/30 06:12:53;;;;;;;3.88;1.23;;;6.70;99.90;;;;;;4887369;29;20232;-67
2022/12/30 06:15:20;;;;;;;0.88;0.88;;;6.60;99.90;;;;;;4888099;29;20211;-65
2022/12/30 06:17:47;;;;;;;2.28;0.90;;;6.60;99.90;;;;;;4894373;29;20306;-67
2022/12/30 06:20:13;;;;;;;1.25;1.05;;;6.70;99.90;;;;;;4884108;29;20217;-66
2022/12/30 06:22:40;;;;;;;1.65;1.20;;;6.60;99.90;;;;;;4891773;29;20232;-67
2022/12/30 06:25:09;;;;;;;1.70;0.80;;;6.60;99.90;;;;;;4893428;29;20545;-66
2022/12/30 06:27:35;;;;;;;1.10;1.10;;;6.60;99.90;;;;;;4891143;29;20591;-66
2022/12/30 06:30:02;;;;;;;0.98;0.98;;;6.60;99.90;;;;;;4890969;29;20213;-65
2022/12/30 06:32:31;;;;;;;1.52;1.42;;;6.60;99.90;;;;;;4890968;29;20217;-66
2022/12/30 06:34:57;;;;;;;1.17;0.57;;;6.60;99.90;;;;;;4895302;29;20862;-67
2022/12/30 06:37:24;;;;;;;1.05;1.05;;;6.60;99.90;;;;;;4894960;29;20236;-67
2022/12/30 06:39:51;;;;;;;2.08;2.03;;;6.60;99.90;;;;;;4888289;29;20219;-66
2022/12/30 06:42:19;;;;;;;0.70;0.70;;;6.60;99.90;;;;;;4891438;29;20681;-66
2022/12/30 06:44:46;;;;;;;16.92;1.77;;;6.50;99.90;;;;;;4891497;29;20217;-67
2022/12/30 06:47:12;;;;;;;6.35;1.40;;;6.50;99.90;;;;;;4892984;29;20556;-66
2022/12/30 06:49:39;;;;;;;3.42;0.95;;;6.40;99.90;;;;;;4883990;29;20209;-66
2022/12/30 06:52:06;;;;;;;0.60;0.60;;;6.40;99.90;;;;;;4891065;29;20244;-67
2022/12/30 06:54:32;;;;;;;3.30;0.80;;;6.40;99.90;;;;;;4880699;29;20214;-66
2022/12/30 06:56:59;;;;;;;1.30;1.05;;;6.30;99.90;;;;;;4894702;29;20213;-67
2022/12/30 06:59:27;;;;;;;0.85;0.85;;;6.30;99.90;;;;;;4893190;29;20216;-67
2022/12/30 07:01:54;;;;;;;2.25;2.15;;;6.30;99.90;;;;;;4891909;29;20240;-67
2022/12/30 07:04:20;;;;;;;5.57;1.38;;;6.20;99.90;;;;;;4892210;29;20224;-67
2022/12/30 07:06:47;;;;;;;14.02;2.72;;;6.20;99.90;;;;;;4893256;29;20567;-66
2022/12/30 07:09:14;;;;;;;1.05;1.00;;;6.10;99.90;;;;;;4881120;29;20626;-67
2022/12/30 07:11:40;;;;;;;1.85;0.95;;;6.10;99.90;;;;;;4887326;29;20228;-66
2022/12/30 07:14:07;;;;;;;2.03;1.92;;;6.10;99.90;;;;;;4882612;29;20679;-66
2022/12/30 07:16:35;;;;;;;1.65;1.63;;;6.00;99.90;;;;;;4894393;29;20204;-68
2022/12/30 07:19:03;;;;;;;0.70;0.70;;;6.00;99.90;;;;;;4894375;29;20212;-67
2022/12/30 07:21:30;;;;;;;1.10;1.10;;;6.00;99.90;;;;;;4888732;29;20295;-66
2022/12/30 07:23:58;;;;;;;2.42;1.85;;;6.00;99.90;;;;;;4879428;29;20204;-66
2022/12/30 07:26:24;;;;;;;1.00;1.00;;;5.90;99.90;;;;;;4884568;29;20327;-66
2022/12/30 07:28:54;;;;;;;1.08;1.08;;;6.00;99.90;;;;;;4893603;29;20230;-66
2022/12/30 07:31:21;;;;;;;0.90;0.90;;;5.90;99.90;;;;;;4884098;29;20236;-66
2022/12/30 07:33:49;;;;;;;1.95;1.25;;;5.90;99.90;;;;;;4894213;29;20223;-66
2022/12/30 07:36:16;;;;;;;1.23;1.23;;;5.90;99.90;;;;;;4890674;29;20218;-66
2022/12/30 07:38:43;;;;;;;2.25;1.55;;;5.90;99.90;;;;;;4894837;29;20215;-66
2022/12/30 07:41:11;;;;;;;4.45;1.40;;;5.90;99.90;;;;;;4892817;29;20240;-66
2022/12/30 07:43:38;;;;;;;1.10;1.10;;;5.80;99.90;;;;;;4894202;29;20228;-64
2022/12/30 07:46:06;;;;;;;0.95;0.70;;;5.80;99.90;;;;;;4897137;29;20208;-67
2022/12/30 07:48:33;;;;;;;1.35;0.90;;;5.80;99.90;;;;;;4890931;29;20208;-65
2022/12/30 07:51:06;;;;;;;1.75;1.65;;;5.80;99.90;;;;;;4896358;29;20235;-64
2022/12/30 07:53:33;;;;;;;2.38;1.52;;;5.70;99.90;;;;;;4892196;29;20528;-65
2022/12/30 07:56:02;;;;;;;1.83;1.73;;;5.70;99.90;;;;;;4895359;29;20208;-64
2022/12/30 07:58:29;;;;;;;1.35;1.25;;;5.70;99.90;;;;;;4889779;29;20685;-67
2022/12/30 08:00:56;;;;;;;10.63;1.85;;;5.70;99.90;;;;;;4893439;29;20225;-66
2022/12/30 08:03:22;;;;;;;0.50;0.50;;;5.70;99.90;;;;;;4894800;29;20232;-66
2022/12/30 08:05:49;;;;;;;1.67;1.67;;;5.70;99.90;;;;;;4888852;29;20217;-68
2022/12/30 08:08:17;;;;;;;0.80;0.80;;;5.70;99.90;;;;;;4886906;29;20684;-64
2022/12/30 08:10:54;;;;;;;1.23;1.23;;;5.70;99.90;;;;;;4890016;29;20221;-65
2022/12/30 08:13:21;;;;;;;2.58;2.20;;;5.80;99.90;;;;;;4893173;29;20215;-63
2022/12/30 08:15:48;;;;;;;1.33;1.13;;;5.80;99.90;;;;;;4891941;29;20216;-67
2022/12/30 08:18:14;;;;;;;2.35;0.73;;;5.80;99.90;;;;;;4896809;29;20218;-65
2022/12/30 08:20:41;;;;;;;1.00;0.93;;;5.80;99.90;;;;;;4897778;29;20699;-65
2022/12/30 08:23:08;;;;;;;1.25;1.25;;;5.80;99.90;;;;;;4895994;29;20232;-66
2022/12/30 08:25:36;;;;;;;1.17;0.77;;;5.80;99.90;;;;;;4891837;29;20209;-65
2022/12/30 08:28:03;;;;;;;1.30;1.20;;;5.80;99.90;;;;;;4892725;29;20224;-66
2022/12/30 08:30:29;;;;;;;0.73;0.73;;;5.80;99.90;;;;;;4889104;29;21054;-66
2022/12/30 08:32:56;;;;;;;2.40;1.35;;;5.80;99.90;;;;;;4895099;29;20597;-66
2022/12/30 08:35:23;;;;;;;5.38;0.90;;;5.80;99.90;;;;;;4893501;29;20210;-66
2022/12/30 08:37:50;;;;;;;0.50;0.50;;;5.90;99.90;;;;;;4891480;29;20216;-67
2022/12/30 08:40:16;;;;;;;8.25;2.63;;;5.90;99.90;;;;;;4882834;29;20280;-67
2022/12/30 08:42:44;;;;;;;1.80;1.70;;;6.00;99.90;;;;;;4889813;29;20236;-66
2022/12/30 08:45:11;;;;;;;17.30;2.80;;;6.00;99.90;;;;;;4896556;29;20304;-66
2022/12/30 08:47:38;;;;;;;2.47;1.60;;;6.00;99.90;;;;;;4889281;29;20224;-67
2022/12/30 08:50:05;;;;;;;1.40;1.08;;;6.00;99.90;;;;;;4895968;29;20213;-66
2022/12/30 08:52:32;;;;;;;5.68;1.15;;;6.10;99.90;;;;;;4889986;29;20228;-65
2022/12/30 08:54:59;;;;;;;0.77;0.77;;;6.10;99.90;;;;;;4893152;29;20581;-66
2022/12/30 08:57:25;;;;;;;1.65;1.55;;;6.10;99.90;;;;;;4879114;29;20232;-65
2022/12/30 08:59:53;;;;;;;3.05;2.40;;;6.20;99.90;;;;;;4885518;29;20235;-66
2022/12/30 09:02:20;;;;;;;1.00;1.00;;;6.20;99.90;;;;;;4893502;29;20850;-66
2022/12/30 09:04:47;;;;;;;0.77;0.77;;;6.20;99.90;;;;;;4890234;29;20207;-65
2022/12/30 09:07:14;;;;;;;16.88;1.23;;;6.30;99.90;;;;;;4889245;29;20224;-66
2022/12/30 09:09:40;;;;;;;1.23;1.17;;;6.30;99.90;;;;;;4890657;29;20244;-66
2022/12/30 09:12:07;;;;;;;4.90;2.42;;;6.30;99.90;;;;;;4887761;29;20245;-66
2022/12/30 09:14:34;;;;;;;5.20;4.68;;;6.30;99.90;;;;;;4894217;29;20209;-65
2022/12/30 09:17:02;;;;;;;1.73;1.63;;;6.40;99.90;;;;;;4896614;29;20215;-67
2022/12/30 09:19:29;;;;;;;0.68;0.68;;;6.40;99.90;;;;;;4891956;29;20213;-67
2022/12/30 09:21:56;;;;;;;1.25;1.20;;;6.40;99.90;;;;;;4892642;29;20244;-66
2022/12/30 09:24:22;;;;;;;9.20;5.00;;;6.50;99.90;;;;;;4885941;29;20224;-65
2022/12/30 09:26:49;;;;;;;4.75;1.98;;;6.60;99.90;;;;;;4889431;29;20215;-67
2022/12/30 09:29:17;;;;;;;5.40;3.20;;;6.60;99.90;;;;;;4892450;29;20219;-66
2022/12/30 09:31:44;;;;;;;6.88;2.25;;;6.70;99.90;;;;;;4884823;29;20355;-65
2022/12/30 09:34:12;;;;;;;3.38;3.08;;;6.80;99.90;;;;;;4895132;29;20205;-66
2022/12/30 09:36:39;;;;;;;2.10;1.25;;;6.80;99.90;;;;;;4884788;29;20215;-66
2022/12/30 09:39:06;;;;;;;9.18;5.03;;;6.90;99.90;;;;;;4891426;29;20221;-65
2022/12/30 09:44:41;;;;;;;5.40;3.85;;;6.90;99.90;;;;;;4885561;29;20658;-64
2022/12/30 09:47:19;;;;;;;4.55;4.22;;;7.00;99.90;;;;;;4884087;29;20532;-66
2022/12/30 09:49:50;;;;;;;1.42;1.40;;;7.10;99.90;;;;;;4896057;29;20212;-65
2022/12/30 09:52:21;;;;;;;7.63;1.40;;;7.20;99.90;;;;;;4891054;29;20233;-65
2022/12/30 09:54:53;;;;;;;18.05;4.18;;;7.20;99.90;;;;;;4893583;29;20208;-66
2022/12/30 09:57:34;;;;;;;8.98;2.45;;;7.30;99.90;;;;;;4890094;29;20218;-65
2022/12/30 10:00:07;;;;;;;7.93;2.95;;;7.30;99.90;;;;;;4890085;29;20679;-64
2022/12/30 10:02:48;;;;;;;2.15;2.05;;;7.40;99.90;;;;;;4892378;29;20761;-65
2022/12/30 10:05:16;;;;;;;1.98;1.30;;;7.50;99.90;;;;;;4896741;29;20197;-65
2022/12/30 10:07:47;;;;;;;7.22;2.08;;;7.50;99.90;;;;;;4895433;29;20204;-65
2022/12/30 10:10:19;;;;;;;2.60;1.73;;;7.50;99.90;;;;;;4895232;29;20742;-66
2022/12/30 10:12:55;;;;;;;6.20;2.15;;;7.60;99.90;;;;;;4895650;29;20259;-64
2022/12/30 10:15:33;;;;;;;18.95;4.40;;;7.60;99.90;;;;;;4892813;29;20228;-66
2022/12/30 10:18:28;;;;;;;2.65;2.45;;;7.60;99.90;;;;;;4891156;29;20721;-67
2022/12/30 10:21:07;;;;;;;2.83;1.85;;;7.60;99.90;;;;;;4887620;29;20198;-67
2022/12/30 10:23:46;;;;;;;6.57;5.82;;;7.70;99.90;;;;;;4881871;29;20575;-66
2022/12/30 10:26:16;;;;;;;8.85;3.72;;;7.70;99.90;;;;;;4888149;29;20224;-65
2022/12/30 10:28:46;;;;;;;2.05;1.95;;;7.70;99.90;;;;;;4895541;29;20224;-67
2022/12/30 10:31:18;;;;;;;4.80;3.35;;;7.80;99.90;;;;;;4881920;29;20606;-65
2022/12/30 10:33:47;;;;;;;2.47;2.28;;;7.80;99.90;;;;;;4886497;29;20209;-66
2022/12/30 10:36:19;;;;;;;1.75;1.70;;;7.80;99.90;;;;;;4895234;29;20205;-66
2022/12/30 10:38:46;;;;;;;2.47;2.20;;;7.90;99.90;;;;;;4883551;29;20217;-66
2022/12/30 10:41:29;;;;;;;10.48;6.35;;;8.00;99.90;;;;;;4882961;29;20229;-66
2022/12/30 10:44:10;;;;;;;1.10;1.10;;;8.00;99.90;;;;;;4886169;29;20233;-66
2022/12/30 10:46:48;;;;;;;1.58;0.88;;;8.10;99.90;;;;;;4885077;29;20213;-66
2022/12/30 10:49:26;;;;;;;9.50;1.85;;;8.10;99.90;;;;;;4888018;29;20286;-66
2022/12/30 10:51:55;;;;;;;2.60;0.70;;;8.10;99.90;;;;;;4889499;29;20229;-67
2022/12/30 10:54:22;;;;;;;2.33;0.98;;;8.20;99.90;;;;;;4890729;29;20263;-66
2022/12/30 10:56:49;;;;;;;1.10;0.50;;;8.20;99.90;;;;;;4885983;29;20216;-67
2022/12/30 10:59:19;;;;;;;0.75;0.75;;;8.20;99.90;;;;;;4886734;29;20221;-66
2022/12/30 11:01:47;;;;;;;0.75;0.75;;;8.10;99.90;;;;;;4894711;29;20238;-66
2022/12/30 11:04:38;;;;;;;2.20;1.05;;;8.20;99.90;;;;;;4892869;29;20237;-65
2022/12/30 11:07:10;;;;;;;1.92;1.83;;;8.20;99.90;;;;;;4890429;29;20671;-66
2022/12/30 11:09:37;;;;;;;2.58;2.38;;;8.20;99.90;;;;;;4884912;29;20233;-67
2022/12/30 11:14:58;;;;;;;1.33;1.33;;;8.20;99.90;;;;;;4893719;29;20210;-68
2022/12/30 11:17:27;;;;;;;1.88;1.13;;;8.20;99.90;;;;;;4886411;29;20220;-66
2022/12/30 11:19:56;;;;;;;1.00;1.00;;;8.20;99.90;;;;;;4886973;29;20217;-66
2022/12/30 11:22:24;;;;;;;0.50;0.50;;;8.20;99.90;;;;;;4892894;29;20700;-66
2022/12/30 11:27:38;;;;;;;1.17;1.17;;;8.20;99.90;;;;;;4907265;29;20225;-69
2022/12/30 11:30:07;;;;;;;0.98;0.90;;;8.20;99.90;;;;;;4913245;29;20211;-70
2022/12/30 11:32:35;;;;;;;1.17;1.17;;;8.20;99.90;;;;;;4897885;29;20220;-71
2022/12/30 11:35:02;;;;;;;0.93;0.93;;;8.20;99.90;;;;;;4912998;29;20679;-70
2022/12/30 11:37:35;;;;;;;4.72;0.93;;;8.20;99.90;;;;;;4903546;29;20206;-69
2022/12/30 11:40:26;;;;;;;6.88;4.30;;;8.20;99.90;;;;;;4909723;29;20236;-71
2022/12/30 11:43:13;;;;;;;6.35;2.50;;;8.20;99.90;;;;;;4913195;29;20213;-69
2022/12/30 11:45:50;;;;;;;1.52;1.52;;;8.20;99.90;;;;;;4896761;29;20622;-70
2022/12/30 11:48:29;;;;;;;0.60;0.60;;;8.30;99.90;;;;;;4914041;29;20239;-69
2022/12/30 11:50:57;;;;;;;3.90;0.90;;;8.30;99.90;;;;;;4909462;29;20217;-70
2022/12/30 11:53:29;;;;;;;3.25;3.10;;;8.30;99.90;;;;;;4912943;29;20828;-71
2022/12/30 11:55:57;;;;;;;6.90;3.33;;;8.30;99.90;;;;;;4908293;29;20259;-70
2022/12/30 11:58:24;;;;;;;1.55;1.13;;;8.30;99.90;;;;;;4901267;29;20541;-71
2022/12/30 12:00:59;;;;;;;2.15;1.10;;;8.40;99.90;;;;;;4911291;29;20236;-69
2022/12/30 12:03:28;;;;;;;1.45;1.35;;;8.30;99.90;;;;;;4902821;29;20221;-70
2022/12/30 12:06:05;;;;;;;3.28;2.92;;;8.40;99.90;;;;;;4912463;29;20276;-70
2022/12/30 12:08:37;;;;;;;4.10;2.38;;;8.40;99.90;;;;;;4899824;29;20200;-71
2022/12/30 12:11:08;;;;;;;4.90;1.48;;;8.40;99.90;;;;;;4912086;29;20211;-70
2022/12/30 12:13:38;;;;;;;3.80;0.90;;;8.50;99.90;;;;;;4902598;29;20297;-71
2022/12/30 12:16:07;;;;;;;1.15;1.15;;;8.50;99.90;;;;;;4909316;29;20237;-71
2022/12/30 12:18:41;;;;;;;1.30;0.68;;;8.50;99.90;;;;;;4912316;29;20225;-70
2022/12/30 12:21:16;;;;;;;1.15;1.02;;;8.40;99.90;;;;;;4918483;29;20216;-70
2022/12/30 12:23:50;;;;;;;3.85;3.65;;;8.50;99.90;;;;;;4918537;29;20227;-69
2022/12/30 12:26:20;;;;;;;2.83;2.63;;;8.40;99.90;;;;;;4915281;29;20237;-69
2022/12/30 12:28:48;;;;;;;5.10;1.58;;;8.40;99.90;;;;;;4906156;29;20201;-70
2022/12/30 12:31:43;;;;;;;1.10;1.10;;;8.40;99.90;;;;;;4910507;29;20294;-69
2022/12/30 12:34:22;;;;;;;3.10;2.05;;;8.40;99.90;;;;;;4911575;29;20273;-70
2022/12/30 12:37:07;;;;;;;2.97;2.10;;;8.50;99.90;;;;;;4907602;29;20259;-70
2022/12/30 12:39:51;;;;;;;1.35;1.20;;;8.50;99.90;;;;;;4913526;29;20212;-70
2022/12/30 12:42:23;;;;;;;3.60;2.08;;;8.50;99.90;;;;;;4909105;29;20222;-69
2022/12/30 12:45:22;;;;;;;2.50;0.65;;;8.60;99.90;;;;;;4919793;29;20228;-71
2022/12/30 12:48:24;;;;;;;1.65;1.55;;;8.60;99.90;;;;;;4911506;29;20237;-70
2022/12/30 12:51:07;;;;;;;0.85;0.85;;;8.60;99.90;;;;;;4907080;29;20220;-71
2022/12/30 12:53:49;;;;;;;0.60;0.60;;;8.60;99.90;;;;;;4915416;29;20209;-70
2022/12/30 12:57:00;;;;;;;1.33;0.95;;;8.50;99.90;;;;;;4915456;29;20597;-69
2022/12/30 12:59:47;;;;;;;1.40;1.38;;;8.60;99.90;;;;;;4900249;29;20206;-70
2022/12/30 13:02:32;;;;;;;5.57;1.38;;;8.60;99.90;;;;;;4908834;29;20228;-70
2022/12/30 13:05:07;;;;;;;0.65;0.65;;;8.50;99.90;;;;;;4923136;29;20243;-70
2022/12/30 13:07:45;;;;;;;2.15;2.03;;;8.60;99.90;;;;;;4916288;29;20265;-69
2022/12/30 13:10:27;;;;;;;3.75;0.85;;;8.60;99.90;;;;;;4914373;29;20297;-70
2022/12/30 13:13:01;;;;;;;0.85;0.73;;;8.60;99.90;;;;;;4907064;29;20217;-70
2022/12/30 13:15:34;;;;;;;0.38;0.38;;;8.70;99.90;;;;;;4910472;29;20234;-69
2022/12/30 13:18:05;;;;;;;0.90;0.90;;;8.60;99.90;;;;;;4904033;29;20219;-69
2022/12/30 13:20:42;;;;;;;0.95;0.95;;;8.60;99.90;;;;;;4905998;29;20209;-70
2022/12/30 13:23:12;;;;;;;1.13;1.02;;;8.50;99.90;;;;;;4914931;29;20287;-70
2022/12/30 13:25:43;;;;;;;1.38;1.27;;;8.50;99.90;;;;;;4913268;29;20474;-69
2022/12/30 13:28:19;;;;;;;1.30;1.30;;;8.50;99.90;;;;;;4917870;29;20560;-69
2022/12/30 13:30:56;;;;;;;0.80;0.80;;;8.40;99.90;;;;;;4910636;29;20209;-70
2022/12/30 13:33:29;;;;;;;0.20;0.20;;;8.50;99.90;;;;;;4909367;29;20217;-71
2022/12/30 13:36:00;;;;;;;1.75;1.75;;;8.50;99.90;;;;;;4908631;29;20248;-70
2022/12/30 13:38:39;;;;;;;1.52;1.50;;;8.40;99.90;;;;;;4902968;29;20622;-71
2022/12/30 13:41:46;;;;;;;1.40;1.30;;;8.40;99.90;;;;;;4920303;29;20551;-72
2022/12/30 13:44:16;;;;;;;1.27;1.27;;;8.40;99.90;;;;;;4902768;29;20600;-71
2022/12/30 13:46:50;;;;;;;0.50;0.50;;;8.40;99.90;;;;;;4910830;29;20240;-71
2022/12/30 13:49:25;;;;;;;1.35;1.25;;;8.40;99.90;;;;;;4918989;29;20215;-71
2022/12/30 13:51:58;;;;;;;1.00;1.00;;;8.40;99.90;;;;;;4909060;29;20215;-71
2022/12/30 13:54:26;;;;;;;1.95;1.60;;;8.40;99.90;;;;;;4917739;29;20204;-71
2022/12/30 13:56:53;;;;;;;0.47;0.47;;;8.40;99.90;;;;;;4924918;29;20254;-72
2022/12/30 13:59:28;;;;;;;1.05;1.05;;;8.40;99.90;;;;;;4900088;29;20688;-70
2022/12/30 14:02:32;;;;;;;0.80;0.80;;;8.40;99.90;;;;;;4912496;29;20216;-71
2022/12/30 14:05:01;;;;;;;0.88;0.88;;;8.40;99.90;;;;;;4915988;29;20236;-72
2022/12/30 14:07:49;;;;;;;3.85;1.65;;;8.40;99.90;;;;;;4898079;29;20209;-72
2022/12/30 14:10:54;;;;;;;1.92;1.83;;;8.40;99.90;;;;;;4906947;29;20224;-71
2022/12/30 14:13:37;;;;;;;1.50;1.50;;;8.40;99.90;;;;;;4917056;29;20235;-68
2022/12/30 14:16:06;;;;;;;0.75;0.75;;;8.40;99.90;;;;;;4916730;29;20721;-69
2022/12/30 14:18:39;;;;;;;0.77;0.77;;;8.30;99.90;;;;;;4929223;29;20208;-68
2022/12/30 14:21:10;;;;;;;1.08;1.08;;;8.30;99.90;;;;;;4916008;29;20290;-68
2022/12/30 14:23:43;;;;;;;0.90;0.90;;;8.30;99.90;;;;;;4918926;29;20239;-68
2022/12/30 14:26:42;;;;;;;1.48;1.38;;;8.30;99.90;;;;;;4914630;29;20244;-68
2022/12/30 14:29:28;;;;;;;2.80;0.90;;;8.40;99.90;;;;;;4905457;29;20316;-69
2022/12/30 14:31:57;;;;;;;2.65;1.17;;;8.40;99.90;;;;;;4908989;29;20216;-69
2022/12/30 14:34:29;;;;;;;0.80;0.80;;;8.40;99.90;;;;;;4908407;29;20219;-69
2022/12/30 14:37:00;;;;;;;0.77;0.77;;;8.40;99.90;;;;;;4915300;29;20241;-68
2022/12/30 14:39:28;;;;;;;3.38;1.27;;;8.40;99.90;;;;;;4911949;29;20591;-70
2022/12/30 14:41:56;;;;;;;1.10;1.10;;;8.40;99.90;;;;;;4902895;29;20240;-68
2022/12/30 14:44:26;;;;;;;1.05;0.80;;;8.40;99.90;;;;;;4904739;29;20692;-67
2022/12/30 14:46:56;;;;;;;0.65;0.40;;;8.40;99.90;;;;;;4916622;29;20731;-69
2022/12/30 14:49:32;;;;;;;0.95;0.90;;;8.30;99.90;;;;;;4914499;29;20213;-69
2022/12/30 14:52:12;;;;;;;0.77;0.50;;;8.30;99.90;;;;;;4913437;29;20219;-68
2022/12/30 14:54:44;;;;;;;1.83;1.70;;;8.30;99.90;;;;;;4919725;29;20227;-69
2022/12/30 14:57:21;;;;;;;1.25;1.10;;;8.30;99.90;;;;;;4907449;29;20240;-69
2022/12/30 15:00:13;;;;;;;2.35;0.95;;;8.30;99.90;;;;;;4917368;29;20216;-68
2022/12/30 15:02:44;;;;;;;1.00;0.40;;;8.30;99.90;;;;;;4904852;29;20254;-68
2022/12/30 15:05:16;;;;;;;3.15;0.63;;;8.30;99.90;;;;;;4908240;29;20596;-68
2022/12/30 15:07:46;;;;;;;0.50;0.50;;;8.30;99.90;;;;;;4906050;29;20233;-68
2022/12/30 15:10:31;;;;;;;0.43;0.43;;;8.20;99.90;;;;;;4913701;29;20296;-69
2022/12/30 15:13:12;;;;;;;2.67;0.93;;;8.20;99.90;;;;;;4902065;29;20208;-69
2022/12/30 15:15:40;;;;;;;1.23;0.88;;;8.20;99.90;;;;;;4903548;29;20230;-68
2022/12/30 15:18:30;;;;;;;0.60;0.60;;;8.20;99.90;;;;;;4913457;29;20209;-69
2022/12/30 15:20:57;;;;;;;2.95;1.42;;;8.20;99.90;;;;;;4910590;29;20222;-69
2022/12/30 15:23:25;;;;;;;1.55;1.45;;;8.20;99.90;;;;;;4908768;29;20670;-69
2022/12/30 15:25:59;;;;;;;0.75;0.75;;;8.10;99.90;;;;;;4902811;29;20671;-68
2022/12/30 15:28:26;;;;;;;2.85;1.08;;;8.10;99.90;;;;;;4901085;29;20216;-68
2022/12/30 15:30:53;;;;;;;3.58;1.88;;;8.10;99.90;;;;;;4911968;29;20299;-68
2022/12/30 15:33:20;;;;;;;2.85;1.58;;;8.10;99.90;;;;;;4904670;29;20218;-68
2022/12/30 15:35:47;;;;;;;1.10;1.10;;;8.10;99.90;;;;;;4899032;29;20321;-68
2022/12/30 15:38:16;;;;;;;1.60;1.60;;;8.10;99.90;;;;;;4906730;29;20216;-68
2022/12/30 15:40:47;;;;;;;5.40;1.00;;;8.00;99.90;;;;;;4914382;29;20220;-68
2022/12/30 15:43:16;;;;;;;6.18;1.75;;;8.00;99.90;;;;;;4909841;29;20213;-69
2022/12/30 15:45:45;;;;;;;0.82;0.82;;;8.00;99.90;;;;;;4914895;29;20240;-69
2022/12/30 15:48:30;;;;;;;1.00;0.90;;;8.00;99.90;;;;;;4912795;29;20214;-68
2022/12/30 15:51:04;;;;;;;1.98;1.83;;;8.00;99.90;;;;;;4920320;29;20208;-67
2022/12/30 15:53:32;;;;;;;1.15;1.15;;;8.00;99.90;;;;;;4906703;29;20552;-68
2022/12/30 15:56:02;;;;;;;1.00;1.00;;;8.00;99.90;;;;;;4912769;29;20228;-67
2022/12/30 15:58:32;;;;;;;1.27;1.27;;;8.00;99.90;;;;;;4922029;29;20299;-68
2022/12/30 16:01:03;;;;;;;0.70;0.50;;;8.00;99.90;;;;;;4917466;29;20215;-68
2022/12/30 16:03:30;;;;;;;1.70;1.10;;;8.00;99.90;;;;;;4913378;29;20212;-68
2022/12/30 16:05:57;;;;;;;0.88;0.88;;;7.90;99.90;;;;;;4916487;29;20240;-68
2022/12/30 16:08:27;;;;;;;0.60;0.60;;;7.90;99.90;;;;;;4899404;29;20237;-68
2022/12/30 16:11:04;;;;;;;1.25;1.15;;;7.90;99.90;;;;;;4919775;29;20208;-68
2022/12/30 16:13:33;;;;;;;1.58;1.58;;;7.90;99.90;;;;;;4909612;29;20223;-69
2022/12/30 16:16:18;;;;;;;1.63;1.52;;;7.90;99.90;;;;;;4913659;29;20228;-68
2022/12/30 16:18:45;;;;;;;6.50;1.65;;;8.00;99.90;;;;;;4900361;29;20252;-68
2022/12/30 16:21:12;;;;;;;1.30;1.20;;;8.00;99.90;;;;;;4907729;29;20221;-69
2022/12/30 16:23:40;;;;;;;0.55;0.55;;;7.90;99.90;;;;;;4909296;29;20215;-68
2022/12/30 16:26:25;;;;;;;5.30;1.90;;;8.00;99.90;;;;;;4905507;29;20237;-68
2022/12/30 16:28:52;;;;;;;3.50;2.63;;;8.00;99.90;;;;;;4911007;29;20210;-67
2022/12/30 16:31:19;;;;;;;3.17;2.10;;;7.90;99.90;;;;;;4909654;29;20638;-68
2022/12/30 16:33:47;;;;;;;4.07;1.70;;;7.90;99.90;;;;;;4907594;29;20236;-68
2022/12/30 16:36:17;;;;;;;6.68;3.65;;;7.90;99.90;;;;;;4905979;29;20224;-68
2022/12/30 16:38:47;;;;;;;3.20;1.98;;;7.90;99.90;;;;;;4910185;29;20258;-69
2022/12/30 16:41:20;;;;;;;0.50;0.50;;;7.90;99.90;;;;;;4908469;29;20670;-69
2022/12/30 16:43:48;;;;;;;3.13;0.68;;;7.90;99.90;;;;;;4916327;29;20263;-68
2022/12/30 16:46:17;;;;;;;3.80;2.28;;;7.90;99.90;;;;;;4914305;29;20235;-69
2022/12/30 16:48:44;;;;;;;3.92;0.60;;;7.90;99.90;;;;;;4918776;29;20219;-68
2022/12/30 16:51:18;;;;;;;1.10;1.10;;;7.90;99.90;;;;;;4910166;29;20224;-67
2022/12/30 16:53:45;;;;;;;2.08;1.50;;;7.90;99.90;;;;;;4910204;29;20627;-68
2022/12/30 16:56:11;;;;;;;0.63;0.40;;;8.00;99.90;;;;;;4919297;29;20732;-69
2022/12/30 16:58:40;;;;;;;0.80;0.80;;;8.00;99.90;;;;;;4910912;29;20217;-69
2022/12/30 17:01:07;;;;;;;1.60;1.50;;;8.10;99.90;;;;;;4910254;29;20645;-69
2022/12/30 17:03:34;;;;;;;1.60;0.93;;;8.10;99.90;;;;;;4916604;29;20219;-68
2022/12/30 17:06:00;;;;;;;2.17;1.50;;;8.10;99.90;;;;;;4913207;29;20248;-69
2022/12/30 17:08:30;;;;;;;1.88;1.60;;;8.10;99.90;;;;;;4915496;29;20561;-69
2022/12/30 17:11:01;;;;;;;5.55;0.75;;;8.10;99.90;;;;;;4916340;29;20213;-69
2022/12/30 17:13:31;;;;;;;8.90;1.38;;;8.10;99.90;;;;;;4918161;29;20688;-69
2022/12/30 17:16:00;;;;;;;0.40;0.40;;;8.20;99.90;;;;;;4919311;29;20235;-68
2022/12/30 17:18:27;;;;;;;1.35;1.35;;;8.30;99.90;;;;;;4902806;29;20213;-68
2022/12/30 17:20:56;;;;;;;2.65;1.08;;;8.30;99.90;;;;;;4907870;29;20236;-68
2022/12/30 17:23:30;;;;;;;0.75;0.75;;;8.30;99.90;;;;;;4914084;29;20212;-68
2022/12/30 17:25:57;;;;;;;0.50;0.50;;;8.30;99.90;;;;;;4908158;29;20235;-69
2022/12/30 17:28:24;;;;;;;0.30;0.30;;;8.40;99.90;;;;;;4916189;23;20334;-65
2022/12/30 17:30:51;;;;;;;3.20;3.05;;;8.30;99.90;;;;;;4907512;29;20585;-66
2022/12/30 17:33:19;;;;;;;0.85;0.85;;;8.30;99.90;;;;;;4904666;29;21584;-65
2022/12/30 17:35:46;;;;;;;1.67;0.98;;;8.30;99.90;;;;;;4901700;29;20206;-66
2022/12/30 17:38:12;;;;;;;2.35;0.73;;;8.30;99.90;;;;;;4912870;29;20255;-67
2022/12/30 17:40:39;;;;;;;6.65;1.30;;;8.40;99.90;;;;;;4906195;29;20217;-66
2022/12/30 17:43:06;;;;;;;5.57;0.85;;;8.40;99.90;;;;;;4912155;29;20209;-65
2022/12/30 17:45:33;;;;;;;0.82;0.82;;;8.40;99.90;;;;;;4907285;29;20232;-67
2022/12/30 17:47:59;;;;;;;0.60;0.60;;;8.40;99.90;;;;;;4902466;29;20229;-67
2022/12/30 17:50:27;;;;;;;2.50;1.38;;;8.50;99.90;;;;;;4911151;29;20293;-66
2022/12/30 17:52:54;;;;;;;2.67;1.55;;;8.50;99.90;;;;;;4900497;29;20317;-67
2022/12/30 17:55:21;;;;;;;0.93;0.93;;;8.50;99.90;;;;;;4906081;29;20540;-66
2022/12/30 17:57:48;;;;;;;0.57;0.57;;;8.50;99.90;;;;;;4904148;29;20232;-67
2022/12/30 18:00:15;;;;;;;0.35;0.35;;;8.50;99.90;;;;;;4909186;29;20218;-68
2022/12/30 18:02:42;;;;;;;1.27;0.77;;;8.40;99.90;;;;;;4911610;29;20209;-65
2022/12/30 18:05:13;;;;;;;0.45;0.45;;;8.40;99.90;;;;;;4904251;29;20290;-67
2022/12/30 18:07:41;;;;;;;0.25;0.25;;;8.40;99.90;;;;;;4906903;29;20288;-67
2022/12/30 18:10:09;;;;;;;2.33;0.40;;;8.30;99.90;;;;;;4907066;29;20670;-67
2022/12/30 18:12:35;;;;;;;6.07;0.90;;;8.30;99.90;;;;;;4900841;29;20655;-67
2022/12/30 18:15:02;;;;;;;0.30;0.30;;;8.30;99.90;;;;;;4913348;29;20778;-67
2022/12/30 18:17:30;;;;;;;1.13;1.10;;;8.30;99.90;;;;;;4904245;29;20220;-66
2022/12/30 18:19:57;;;;;;;0.38;0.38;;;8.30;99.90;;;;;;4900610;29;20209;-67
2022/12/30 18:22:24;;;;;;;1.27;1.02;;;8.30;99.90;;;;;;4898147;29;20210;-68
2022/12/30 18:24:52;;;;;;;0.57;0.57;;;8.30;99.90;;;;;;4904283;29;20224;-68
2022/12/30 18:27:19;;;;;;;1.20;0.60;;;8.30;99.90;;;;;;4904489;29;20212;-68
2022/12/30 18:29:46;;;;;;;0.20;0.20;;;8.30;99.90;;;;;;4901747;29;20232;-68